Time;durP1;ratioP1;P1;durP2;ratioP2;P2;SDS_P1;SDS_P2;PMS_P1;PMS_P2;Temp;Humidity;BMP_temperature;BMP_pressure;BME280_temperature;BME280_humidity;BME280_pressure;Samples;Min_cycle;Max_cycle;Signal;HPM_P1;HPM_P2
2022/09/15 00:00:16;;;;;;;10.45;4.00;;;15.70;99.90;;;;;;5065472;28;20218;-71
2022/09/15 00:02:43;;;;;;;6.75;3.25;;;15.70;99.90;;;;;;5047419;28;20210;-72
2022/09/15 00:05:09;;;;;;;6.50;2.90;;;15.70;99.90;;;;;;5070439;28;20175;-71
2022/09/15 00:07:35;;;;;;;8.15;3.40;;;15.70;99.90;;;;;;5066246;28;20203;-71
2022/09/15 00:10:02;;;;;;;10.02;3.35;;;15.70;99.90;;;;;;5042754;28;20636;-71
2022/09/15 00:12:28;;;;;;;9.07;3.58;;;15.70;99.90;;;;;;5068205;28;20207;-71
2022/09/15 00:14:54;;;;;;;6.50;3.40;;;15.70;99.90;;;;;;5065317;28;20215;-71
2022/09/15 00:17:20;;;;;;;8.80;3.38;;;15.60;99.90;;;;;;5042095;28;20171;-72
2022/09/15 00:19:45;;;;;;;6.90;3.80;;;15.70;99.90;;;;;;5052207;28;20203;-73
2022/09/15 00:22:11;;;;;;;8.40;3.58;;;15.70;99.90;;;;;;5069109;28;20657;-72
2022/09/15 00:24:37;;;;;;;7.63;3.67;;;15.60;99.90;;;;;;5065975;28;20700;-71
2022/09/15 00:27:02;;;;;;;8.23;3.80;;;15.60;99.90;;;;;;5066897;28;20202;-72
2022/09/15 00:29:28;;;;;;;9.00;4.28;;;15.60;99.90;;;;;;5071027;28;20281;-72
2022/09/15 00:31:54;;;;;;;6.30;3.15;;;15.60;99.90;;;;;;5065469;28;20179;-72
2022/09/15 00:34:19;;;;;;;7.68;3.40;;;15.60;99.90;;;;;;5065496;28;20220;-72
2022/09/15 00:36:45;;;;;;;6.82;3.40;;;15.60;99.90;;;;;;5069080;28;20365;-72
2022/09/15 00:39:11;;;;;;;8.07;3.67;;;15.60;99.90;;;;;;5068096;28;20316;-71
2022/09/15 00:41:39;;;;;;;8.45;3.35;;;15.50;99.90;;;;;;5065271;28;20210;-72
2022/09/15 00:44:34;;;;;;;8.88;3.60;;;15.40;99.90;;;;;;5042920;28;20306;-72
2022/09/15 00:47:02;;;;;;;8.88;3.78;;;15.30;99.90;;;;;;5062000;28;20533;-72
2022/09/15 00:49:32;;;;;;;6.63;3.42;;;15.30;99.90;;;;;;5064939;28;20211;-73
2022/09/15 00:52:15;;;;;;;4.82;3.10;;;15.30;99.90;;;;;;5045148;28;20774;-72
2022/09/15 00:54:54;;;;;;;7.93;3.20;;;15.30;99.90;;;;;;5067771;28;20206;-71
2022/09/15 00:57:27;;;;;;;9.23;3.78;;;15.30;99.90;;;;;;5064849;28;20203;-71
2022/09/15 00:59:55;;;;;;;7.47;3.70;;;15.20;99.90;;;;;;5058406;28;20236;-70
2022/09/15 01:02:27;;;;;;;8.50;3.72;;;15.20;99.90;;;;;;5067913;28;20194;-72
2022/09/15 01:04:54;;;;;;;9.45;3.45;;;15.20;99.90;;;;;;5060641;28;20190;-71
2022/09/15 01:07:33;;;;;;;10.52;4.32;;;15.20;99.90;;;;;;5062948;28;20203;-71
2022/09/15 01:10:03;;;;;;;7.05;4.00;;;15.10;99.90;;;;;;5066180;28;20211;-71
2022/09/15 01:12:29;;;;;;;10.35;3.95;;;15.10;99.90;;;;;;5066600;28;20205;-71
2022/09/15 01:14:55;;;;;;;5.65;3.13;;;15.10;99.90;;;;;;5064057;28;20210;-71
2022/09/15 01:18:17;;;;;;;9.57;3.92;;;15.10;99.90;;;;;;5064113;28;20172;-72
2022/09/15 01:20:56;;;;;;;13.02;3.88;;;15.00;99.90;;;;;;4966641;28;20229;-71
2022/09/15 01:23:59;;;;;;;6.78;4.32;;;15.10;99.90;;;;;;4956455;28;20180;-71
2022/09/15 01:27:05;;;;;;;8.40;3.42;;;15.00;99.90;;;;;;5003962;28;20186;-71
2022/09/15 01:29:49;;;;;;;11.18;4.00;;;15.00;99.90;;;;;;5066460;28;20228;-72
2022/09/15 01:35:30;;;;;;;9.23;3.95;;;15.00;99.90;;;;;;5064664;28;20217;-72
2022/09/15 01:38:11;;;;;;;10.02;3.70;;;14.90;99.90;;;;;;5044258;28;20287;-72
2022/09/15 01:40:48;;;;;;;10.88;4.10;;;14.90;99.90;;;;;;5063807;28;20719;-71
2022/09/15 01:43:16;;;;;;;6.68;3.83;;;14.80;99.90;;;;;;5063668;28;20207;-72
2022/09/15 01:45:45;;;;;;;8.98;3.28;;;14.80;99.90;;;;;;5068624;28;20207;-71
2022/09/15 01:48:11;;;;;;;8.52;3.72;;;14.70;99.90;;;;;;5066680;28;20207;-71
2022/09/15 01:50:45;;;;;;;10.90;3.47;;;14.70;99.90;;;;;;5041577;28;20211;-71
2022/09/15 01:53:17;;;;;;;7.00;3.30;;;14.70;99.90;;;;;;5065544;28;20175;-72
2022/09/15 01:56:04;;;;;;;6.22;3.17;;;14.80;99.90;;;;;;5070348;28;20207;-71
2022/09/15 01:58:31;;;;;;;7.20;3.47;;;14.80;99.90;;;;;;5062682;28;20777;-72
2022/09/15 02:01:05;;;;;;;6.88;3.75;;;14.90;99.90;;;;;;5065577;28;20268;-72
2022/09/15 02:03:43;;;;;;;8.60;3.30;;;14.80;99.90;;;;;;5065760;28;20199;-72
2022/09/15 02:06:35;;;;;;;5.05;3.28;;;14.80;99.90;;;;;;5059054;28;20648;-72
2022/09/15 02:09:13;;;;;;;6.20;3.25;;;14.80;99.90;;;;;;5044037;28;20241;-71
2022/09/15 02:12:18;;;;;;;10.80;3.38;;;14.80;99.90;;;;;;5065836;28;20203;-71
2022/09/15 02:14:55;;;;;;;6.82;3.40;;;14.80;99.90;;;;;;5051411;28;20977;-71
2022/09/15 02:17:22;;;;;;;6.72;3.80;;;14.80;99.90;;;;;;5063584;28;20180;-72
2022/09/15 02:19:51;;;;;;;11.57;3.53;;;14.80;99.90;;;;;;5068023;28;20635;-72
2022/09/15 02:22:23;;;;;;;7.88;3.95;;;14.80;99.90;;;;;;5066006;28;20196;-72
2022/09/15 02:25:11;;;;;;;12.85;4.13;;;14.80;99.90;;;;;;5042169;28;20218;-71
2022/09/15 02:27:43;;;;;;;6.90;4.00;;;14.80;99.90;;;;;;5067066;28;20271;-71
2022/09/15 02:30:12;;;;;;;8.52;3.60;;;14.80;99.90;;;;;;5066296;28;20214;-71
2022/09/15 02:32:42;;;;;;;5.38;3.45;;;14.80;99.90;;;;;;5062600;28;20831;-71
2022/09/15 02:35:09;;;;;;;7.00;3.80;;;14.70;99.90;;;;;;5063157;28;20211;-71
2022/09/15 02:37:36;;;;;;;8.57;4.28;;;14.70;99.90;;;;;;5050335;28;20211;-71
2022/09/15 02:40:02;;;;;;;9.93;3.75;;;14.60;99.90;;;;;;5046189;28;20215;-71
2022/09/15 02:42:30;;;;;;;8.35;3.67;;;14.60;99.90;;;;;;5034780;28;20582;-72
2022/09/15 02:44:57;;;;;;;9.80;4.43;;;14.50;99.90;;;;;;5071986;23;20230;-73
2022/09/15 02:47:24;;;;;;;10.40;4.22;;;14.40;99.90;;;;;;5049865;28;20184;-74
2022/09/15 02:49:49;;;;;;;8.90;4.28;;;14.40;99.90;;;;;;5045905;28;20222;-74
2022/09/15 02:52:15;;;;;;;9.60;4.35;;;14.40;99.90;;;;;;5045250;28;20200;-74
2022/09/15 02:54:41;;;;;;;9.55;3.95;;;14.50;99.90;;;;;;5047569;28;20205;-71
2022/09/15 02:57:06;;;;;;;11.10;4.18;;;14.50;99.90;;;;;;5064030;28;20207;-75
2022/09/15 03:02:19;;;;;;;11.05;4.45;;;14.30;99.90;;;;;;5067653;28;20177;-73
2022/09/15 03:04:48;;;;;;;8.93;4.38;;;14.30;99.90;;;;;;5063701;28;20899;-74
2022/09/15 03:07:14;;;;;;;8.43;4.18;;;14.40;99.90;;;;;;5065128;28;20214;-73
2022/09/15 03:09:40;;;;;;;8.43;4.63;;;14.30;99.90;;;;;;5068905;28;20206;-73
2022/09/15 03:12:06;;;;;;;20.30;5.65;;;14.30;99.90;;;;;;5051784;28;20210;-74
2022/09/15 03:14:31;;;;;;;10.70;4.20;;;14.30;99.90;;;;;;5065400;28;20199;-73
2022/09/15 03:16:58;;;;;;;8.02;4.20;;;14.30;99.90;;;;;;5068984;28;20695;-74
2022/09/15 03:19:24;;;;;;;8.95;4.32;;;14.30;99.90;;;;;;5068322;28;20704;-75
2022/09/15 03:21:50;;;;;;;8.70;4.50;;;14.30;99.90;;;;;;5040728;28;20909;-72
2022/09/15 03:24:18;;;;;;;9.30;4.22;;;14.30;99.90;;;;;;5068058;28;20206;-72
2022/09/15 03:26:43;;;;;;;10.48;4.32;;;14.30;99.90;;;;;;5046701;28;20230;-72
2022/09/15 03:29:09;;;;;;;8.93;4.38;;;14.30;99.90;;;;;;5065442;28;20235;-76
2022/09/15 03:31:34;;;;;;;13.18;5.15;;;14.30;99.90;;;;;;5051715;28;20203;-71
2022/09/15 03:34:00;;;;;;;8.60;4.30;;;14.20;99.90;;;;;;5049617;28;20203;-72
2022/09/15 03:36:25;;;;;;;10.07;3.83;;;14.20;99.90;;;;;;5063257;28;20203;-73
2022/09/15 03:38:51;;;;;;;9.65;4.70;;;14.20;99.90;;;;;;5047724;28;20219;-75
2022/09/15 03:41:17;;;;;;;7.43;3.92;;;14.20;99.90;;;;;;5068587;28;20182;-72
2022/09/15 03:43:43;;;;;;;8.95;3.80;;;14.10;99.90;;;;;;5067379;28;20175;-72
2022/09/15 03:46:10;;;;;;;7.65;4.50;;;14.10;99.90;;;;;;5061833;28;20211;-72
2022/09/15 03:48:36;;;;;;;8.18;3.72;;;14.10;99.90;;;;;;5058148;28;20269;-75
2022/09/15 03:51:06;;;;;;;10.52;4.82;;;14.10;99.90;;;;;;5066436;28;20376;-72
2022/09/15 03:53:35;;;;;;;10.85;4.63;;;14.10;99.90;;;;;;5050836;28;20168;-72
2022/09/15 03:56:31;;;;;;;7.70;4.00;;;14.10;99.90;;;;;;5045689;28;20323;-75
2022/09/15 03:59:02;;;;;;;10.75;4.97;;;14.00;99.90;;;;;;5044694;28;20222;-72
2022/09/15 04:01:29;;;;;;;11.20;4.68;;;14.00;99.90;;;;;;5063677;28;20234;-72
2022/09/15 04:03:55;;;;;;;7.30;4.03;;;14.00;99.90;;;;;;5059232;28;20678;-72
2022/09/15 04:06:21;;;;;;;14.43;4.25;;;14.00;99.90;;;;;;5061906;28;20315;-73
2022/09/15 04:08:48;;;;;;;8.15;4.18;;;14.10;99.90;;;;;;5065041;28;20586;-73
2022/09/15 04:11:14;;;;;;;8.70;4.38;;;14.00;99.90;;;;;;5050599;28;20175;-73
2022/09/15 04:13:41;;;;;;;9.02;4.25;;;14.00;99.90;;;;;;5065784;28;20657;-74
2022/09/15 04:16:09;;;;;;;10.00;4.68;;;14.00;99.90;;;;;;5071245;28;20208;-73
2022/09/15 04:18:35;;;;;;;10.18;4.00;;;13.90;99.90;;;;;;5072518;28;20195;-71
2022/09/15 04:21:04;;;;;;;8.35;4.03;;;13.90;99.90;;;;;;5063283;28;20227;-72
2022/09/15 04:23:30;;;;;;;6.38;3.70;;;13.90;99.90;;;;;;5067399;28;20955;-72
2022/09/15 04:25:58;;;;;;;8.75;4.00;;;13.90;99.90;;;;;;5068269;28;20199;-71
2022/09/15 04:28:25;;;;;;;7.85;3.97;;;14.00;99.90;;;;;;5045882;28;20200;-72
2022/09/15 04:31:01;;;;;;;10.32;4.57;;;13.90;99.90;;;;;;5064074;28;20207;-71
2022/09/15 04:33:26;;;;;;;15.35;4.28;;;14.00;99.90;;;;;;5064350;28;20216;-71
2022/09/15 04:36:07;;;;;;;7.93;4.20;;;14.00;99.90;;;;;;5064825;28;20780;-72
2022/09/15 04:38:34;;;;;;;14.50;4.30;;;13.90;99.90;;;;;;5064574;28;20643;-70
2022/09/15 04:41:00;;;;;;;12.82;4.40;;;14.00;99.90;;;;;;5053328;28;20256;-72
2022/09/15 04:43:26;;;;;;;9.90;4.20;;;13.90;99.90;;;;;;5046644;28;20228;-72
2022/09/15 04:45:53;;;;;;;10.88;4.78;;;13.90;99.90;;;;;;5065228;28;20235;-74
2022/09/15 04:48:19;;;;;;;12.27;5.03;;;13.90;99.90;;;;;;5068437;28;20285;-73
2022/09/15 04:50:44;;;;;;;4.88;3.85;;;14.00;99.90;;;;;;5070208;28;20212;-72
2022/09/15 04:53:10;;;;;;;15.25;4.30;;;14.00;99.90;;;;;;5054693;28;20733;-75
2022/09/15 04:55:36;;;;;;;11.40;4.43;;;14.00;99.90;;;;;;5052361;28;20202;-72
2022/09/15 04:58:02;;;;;;;7.32;3.90;;;14.00;99.90;;;;;;5047190;28;20200;-73
2022/09/15 05:00:29;;;;;;;12.73;4.90;;;14.00;99.90;;;;;;5068340;28;20297;-74
2022/09/15 05:02:55;;;;;;;8.00;4.68;;;14.00;99.90;;;;;;5048801;28;20218;-76
2022/09/15 05:05:21;;;;;;;9.77;3.75;;;14.00;99.90;;;;;;5063931;28;20195;-74
2022/09/15 05:07:47;;;;;;;7.88;4.10;;;14.10;99.90;;;;;;5069908;28;20270;-74
2022/09/15 05:10:13;;;;;;;8.95;4.18;;;14.20;99.90;;;;;;5068172;28;20211;-73
2022/09/15 05:12:39;;;;;;;9.30;3.85;;;14.30;99.90;;;;;;5044019;28;20206;-74
2022/09/15 05:15:05;;;;;;;9.52;4.63;;;14.30;99.90;;;;;;5068219;28;20589;-73
2022/09/15 05:17:31;;;;;;;6.45;4.22;;;14.40;99.90;;;;;;5053630;28;20203;-74
2022/09/15 05:19:58;;;;;;;7.82;4.20;;;14.50;99.90;;;;;;5044311;28;20613;-74
2022/09/15 05:22:24;;;;;;;8.32;3.80;;;14.60;99.90;;;;;;5064179;28;20226;-74
2022/09/15 05:24:49;;;;;;;7.63;3.75;;;14.60;99.90;;;;;;5067092;28;20211;-74
2022/09/15 05:27:15;;;;;;;12.15;4.35;;;14.60;99.90;;;;;;5064923;28;20213;-73
2022/09/15 05:29:41;;;;;;;7.88;4.45;;;14.80;99.90;;;;;;5065379;28;20700;-75
2022/09/15 05:32:07;;;;;;;6.65;3.88;;;15.00;99.90;;;;;;5062348;28;20552;-73
2022/09/15 05:34:33;;;;;;;7.45;4.15;;;15.00;99.90;;;;;;5066149;28;20207;-72
2022/09/15 05:36:58;;;;;;;9.82;4.82;;;15.20;99.90;;;;;;5066483;28;20282;-73
2022/09/15 05:39:24;;;;;;;10.70;4.07;;;16.30;99.90;;;;;;5053090;28;20276;-73
2022/09/15 05:41:49;;;;;;;8.95;3.58;;;17.10;99.90;;;;;;5068589;28;20207;-73
2022/09/15 05:44:15;;;;;;;7.28;3.67;;;17.80;99.90;;;;;;5067315;28;20175;-73
2022/09/15 05:46:40;;;;;;;6.18;3.22;;;18.50;99.90;;;;;;5062764;28;20179;-73
2022/09/15 05:49:07;;;;;;;5.65;3.17;;;19.10;99.90;;;;;;5046846;28;20773;-75
2022/09/15 05:51:33;;;;;;;5.18;3.15;;;20.10;99.90;;;;;;5067663;28;20688;-73
2022/09/15 05:53:59;;;;;;;3.78;2.20;;;20.90;99.90;;;;;;5048402;28;20222;-75
2022/09/15 05:56:25;;;;;;;6.80;3.30;;;21.30;99.90;;;;;;5063386;28;20734;-76
2022/09/15 05:58:51;;;;;;;8.88;3.10;;;19.70;99.90;;;;;;5052211;28;20175;-73
2022/09/15 06:01:21;;;;;;;7.20;3.05;;;18.90;99.90;;;;;;5052702;28;20210;-73
2022/09/15 06:03:47;;;;;;;7.20;3.47;;;18.20;99.90;;;;;;5067242;28;20229;-73
2022/09/15 06:06:13;;;;;;;6.00;3.10;;;19.00;99.90;;;;;;5051928;28;20296;-72
2022/09/15 06:08:42;;;;;;;9.23;3.38;;;18.60;99.90;;;;;;5067337;28;20199;-73
2022/09/15 06:11:14;;;;;;;6.97;3.47;;;19.70;99.90;;;;;;5059380;28;20599;-74
2022/09/15 06:13:41;;;;;;;8.27;3.08;;;20.50;99.90;;;;;;5067080;28;20206;-73
2022/09/15 06:16:12;;;;;;;6.07;2.83;;;21.50;99.90;;;;;;5067531;28;20220;-73
2022/09/15 06:18:38;;;;;;;4.95;2.30;;;22.20;99.90;;;;;;5064513;28;20210;-73
2022/09/15 06:21:07;;;;;;;6.82;2.60;;;21.70;99.90;;;;;;5061735;28;20234;-72
2022/09/15 06:23:32;;;;;;;5.97;2.85;;;20.90;99.90;;;;;;5069429;28;20222;-73
2022/09/15 06:26:10;;;;;;;5.72;2.47;;;20.20;99.90;;;;;;5045295;28;20207;-73
2022/09/15 06:28:37;;;;;;;5.70;2.47;;;20.60;99.90;;;;;;5059844;28;20707;-73
2022/09/15 06:31:03;;;;;;;5.75;3.10;;;22.00;99.90;;;;;;5059822;28;20212;-73
2022/09/15 06:33:29;;;;;;;4.30;2.55;;;22.00;99.90;;;;;;5068097;28;20198;-74
2022/09/15 06:35:54;;;;;;;4.72;2.72;;;20.80;99.90;;;;;;5063291;28;20223;-73
2022/09/15 06:38:20;;;;;;;8.48;3.30;;;19.90;99.90;;;;;;5066903;28;20614;-73
2022/09/15 06:40:57;;;;;;;7.28;3.55;;;19.00;99.90;;;;;;5061587;28;20627;-73
2022/09/15 06:43:23;;;;;;;9.10;3.17;;;18.60;99.90;;;;;;5064955;28;20207;-74
2022/09/15 06:45:49;;;;;;;5.43;2.90;;;18.30;99.90;;;;;;5061466;28;20211;-72
2022/09/15 06:48:15;;;;;;;5.93;3.00;;;17.90;99.90;;;;;;5052188;28;20734;-72
2022/09/15 06:50:41;;;;;;;3.85;2.63;;;17.40;99.90;;;;;;5045271;28;20684;-71
2022/09/15 06:53:06;;;;;;;9.63;3.20;;;17.40;99.90;;;;;;5069203;28;20194;-74
2022/09/15 06:55:32;;;;;;;12.18;3.92;;;17.30;99.90;;;;;;5064282;28;20206;-73
2022/09/15 06:57:58;;;;;;;14.75;4.05;;;17.20;99.90;;;;;;5065992;28;20214;-73
2022/09/15 07:00:24;;;;;;;6.88;3.40;;;16.90;99.90;;;;;;5041900;28;20232;-74
2022/09/15 07:02:50;;;;;;;4.72;3.03;;;17.10;99.90;;;;;;5048879;28;20212;-73
2022/09/15 07:05:16;;;;;;;5.05;2.33;;;16.80;99.90;;;;;;5052023;28;20553;-74
2022/09/15 07:07:41;;;;;;;7.85;4.50;;;16.60;99.90;;;;;;5068678;28;20649;-72
2022/09/15 07:10:07;;;;;;;8.65;3.78;;;16.80;99.90;;;;;;5050399;28;20207;-73
2022/09/15 07:12:33;;;;;;;6.38;3.45;;;16.90;99.90;;;;;;5061882;28;20203;-73
2022/09/15 07:14:58;;;;;;;7.05;3.33;;;16.90;99.90;;;;;;5059484;28;20264;-77
2022/09/15 07:17:25;;;;;;;9.68;3.63;;;17.10;99.90;;;;;;5048847;28;20277;-76
2022/09/15 07:19:51;;;;;;;11.52;3.75;;;17.20;99.90;;;;;;5047689;28;20305;-77
2022/09/15 07:22:16;;;;;;;6.15;3.25;;;17.10;99.90;;;;;;5067645;28;20286;-72
2022/09/15 07:24:43;;;;;;;6.18;3.10;;;16.90;99.90;;;;;;5067361;28;20372;-72
2022/09/15 07:27:09;;;;;;;5.97;3.10;;;17.00;99.90;;;;;;5069543;28;20733;-73
2022/09/15 07:29:34;;;;;;;8.88;3.75;;;17.00;99.90;;;;;;5065733;28;20210;-72
2022/09/15 07:32:00;;;;;;;18.23;8.13;;;17.00;99.90;;;;;;5070511;28;20171;-72
2022/09/15 07:34:25;;;;;;;8.32;3.72;;;17.00;99.90;;;;;;5070160;28;20218;-73
2022/09/15 07:36:51;;;;;;;4.45;2.72;;;17.10;99.90;;;;;;5072738;28;20233;-71
2022/09/15 07:39:17;;;;;;;8.40;4.13;;;17.00;99.90;;;;;;5050232;28;20460;-73
2022/09/15 07:41:42;;;;;;;9.63;3.60;;;17.00;99.90;;;;;;5055404;28;20210;-73
2022/09/15 07:44:10;;;;;;;5.82;3.42;;;17.10;99.90;;;;;;5045479;28;20802;-71
2022/09/15 07:46:36;;;;;;;7.15;3.08;;;17.20;99.90;;;;;;5068433;28;20211;-72
2022/09/15 07:49:03;;;;;;;9.50;3.60;;;17.40;99.90;;;;;;5057042;28;20639;-73
2022/09/15 07:51:29;;;;;;;7.15;3.90;;;17.30;99.90;;;;;;5072874;28;20199;-74
2022/09/15 07:53:55;;;;;;;6.18;2.97;;;17.50;99.90;;;;;;5056575;28;20217;-74
2022/09/15 07:56:22;;;;;;;7.50;3.00;;;17.50;99.90;;;;;;5052517;28;20191;-73
2022/09/15 07:58:49;;;;;;;6.70;3.30;;;17.50;99.90;;;;;;5072681;28;20178;-75
2022/09/15 08:01:16;;;;;;;6.20;3.85;;;17.90;99.90;;;;;;5071178;28;20214;-72
2022/09/15 08:03:45;;;;;;;6.60;2.80;;;17.90;99.90;;;;;;5053629;28;20762;-73
2022/09/15 08:06:11;;;;;;;6.50;3.38;;;17.90;99.90;;;;;;5046437;28;20215;-73
2022/09/15 08:08:38;;;;;;;4.78;2.40;;;18.20;99.90;;;;;;5071996;28;20211;-73
2022/09/15 08:11:08;;;;;;;6.03;2.58;;;18.60;99.90;;;;;;5069824;28;20270;-74
2022/09/15 08:13:34;;;;;;;4.30;2.25;;;19.60;99.90;;;;;;5048384;28;20195;-75
2022/09/15 08:16:08;;;;;;;5.88;2.53;;;20.00;99.90;;;;;;5072165;28;20224;-75
2022/09/15 08:18:35;;;;;;;5.00;2.00;;;20.10;99.90;;;;;;5069331;28;20199;-74
2022/09/15 08:21:09;;;;;;;7.25;2.35;;;20.40;99.90;;;;;;5051894;28;20725;-74
2022/09/15 08:23:36;;;;;;;9.15;2.63;;;20.50;99.90;;;;;;5073881;28;20207;-74
2022/09/15 08:26:05;;;;;;;6.22;2.00;;;20.70;99.90;;;;;;5070889;28;20204;-75
2022/09/15 08:28:30;;;;;;;4.88;2.33;;;20.40;99.90;;;;;;5074541;28;20201;-74
2022/09/15 08:31:01;;;;;;;8.10;2.25;;;19.90;99.90;;;;;;5065442;28;20720;-73
2022/09/15 08:33:27;;;;;;;10.75;2.75;;;19.20;99.90;;;;;;5075202;28;20203;-75
2022/09/15 08:35:53;;;;;;;10.63;2.83;;;19.20;99.90;;;;;;5070915;28;20219;-75
2022/09/15 08:38:19;;;;;;;5.47;2.45;;;19.30;99.90;;;;;;5069911;28;20171;-74
2022/09/15 08:40:45;;;;;;;5.28;2.28;;;19.50;99.90;;;;;;5074840;28;20210;-74
2022/09/15 08:43:23;;;;;;;4.13;1.88;;;19.70;99.90;;;;;;5071424;28;20769;-74
2022/09/15 08:45:54;;;;;;;7.15;2.20;;;19.70;99.90;;;;;;5080384;22;20304;-73
2022/09/15 08:48:26;;;;;;;3.28;1.92;;;19.50;99.90;;;;;;5062273;28;20214;-72
2022/09/15 08:50:56;;;;;;;4.30;1.88;;;19.30;99.90;;;;;;5084833;28;20199;-72
2022/09/15 08:53:28;;;;;;;3.83;1.88;;;19.00;99.90;;;;;;5080200;28;20617;-72
2022/09/15 08:55:55;;;;;;;5.15;2.63;;;18.90;99.90;;;;;;5062969;28;20202;-72
2022/09/15 08:58:36;;;;;;;5.68;2.42;;;18.50;99.90;;;;;;5076940;28;20203;-72
2022/09/15 09:01:22;;;;;;;9.98;4.30;;;18.30;99.90;;;;;;5078328;28;20281;-71
2022/09/15 09:03:58;;;;;;;4.72;2.67;;;18.00;99.90;;;;;;5081673;28;20206;-71
2022/09/15 09:06:39;;;;;;;7.72;3.75;;;17.90;99.90;;;;;;5079235;28;20787;-71
2022/09/15 09:09:30;;;;;;;7.57;4.32;;;17.90;99.90;;;;;;5088715;28;20239;-72
2022/09/15 09:12:01;;;;;;;8.68;4.18;;;18.10;99.90;;;;;;5089872;28;20214;-73
2022/09/15 09:14:41;;;;;;;8.80;4.15;;;18.10;99.90;;;;;;5078626;28;20206;-72
2022/09/15 09:17:40;;;;;;;7.78;2.92;;;17.90;99.90;;;;;;5063536;28;20203;-72
2022/09/15 09:20:15;;;;;;;8.95;2.65;;;17.80;99.90;;;;;;5057617;28;20211;-71
2022/09/15 09:22:43;;;;;;;4.88;2.50;;;17.90;99.90;;;;;;5061409;28;20288;-71
2022/09/15 09:25:13;;;;;;;8.18;3.67;;;18.00;99.90;;;;;;5056363;28;20700;-71
2022/09/15 09:27:39;;;;;;;10.85;6.10;;;18.20;99.90;;;;;;5062194;28;20198;-71
2022/09/15 09:30:22;;;;;;;12.15;7.47;;;18.50;99.90;;;;;;5077009;28;20715;-72
2022/09/15 09:33:12;;;;;;;5.30;2.20;;;19.00;99.90;;;;;;5073991;28;20206;-70
2022/09/15 09:35:48;;;;;;;10.38;2.75;;;19.20;99.90;;;;;;5074130;28;20249;-72
2022/09/15 09:38:26;;;;;;;2.88;1.73;;;19.80;99.90;;;;;;5081840;28;20171;-69
2022/09/15 09:40:52;;;;;;;6.25;3.50;;;20.20;99.90;;;;;;5072427;28;20223;-69
2022/09/15 09:43:18;;;;;;;7.93;2.20;;;20.30;99.90;;;;;;5076354;28;20328;-70
2022/09/15 09:45:44;;;;;;;4.03;2.60;;;20.80;99.90;;;;;;5075575;28;20716;-71
2022/09/15 09:48:28;;;;;;;9.60;2.75;;;21.00;99.90;;;;;;5078864;28;20225;-70
2022/09/15 09:50:54;;;;;;;4.45;1.95;;;21.00;99.90;;;;;;5055892;28;20198;-70
2022/09/15 09:53:30;;;;;;;6.15;2.50;;;20.70;99.90;;;;;;5075991;28;20191;-71
2022/09/15 09:56:14;;;;;;;19.58;8.43;;;20.60;99.90;;;;;;5076818;28;20549;-70
2022/09/15 09:58:40;;;;;;;8.30;3.47;;;21.00;99.90;;;;;;5078858;28;20202;-71
2022/09/15 10:01:22;;;;;;;8.70;3.22;;;20.90;99.90;;;;;;5076429;28;20222;-70
2022/09/15 10:03:47;;;;;;;37.38;17.08;;;20.70;99.90;;;;;;5058643;28;20210;-71
2022/09/15 10:06:21;;;;;;;9.48;2.60;;;21.20;99.90;;;;;;5057360;28;20217;-70
2022/09/15 10:08:56;;;;;;;5.63;1.88;;;21.50;99.90;;;;;;5073667;28;20214;-69
2022/09/15 10:11:38;;;;;;;4.35;1.33;;;21.20;99.90;;;;;;5061436;28;20201;-69
2022/09/15 10:14:05;;;;;;;8.98;3.20;;;20.70;99.90;;;;;;5076536;28;20178;-70
2022/09/15 10:16:32;;;;;;;9.65;2.03;;;20.60;99.90;;;;;;5077607;28;21090;-69
2022/09/15 10:18:58;;;;;;;9.85;2.95;;;20.60;99.90;;;;;;5076836;28;20211;-70
2022/09/15 10:21:24;;;;;;;8.35;3.63;;;20.50;99.90;;;;;;5078626;28;20285;-71
2022/09/15 10:23:50;;;;;;;11.27;7.10;;;20.60;99.90;;;;;;5071627;28;20211;-69
2022/09/15 10:26:20;;;;;;;3.88;1.73;;;20.70;99.90;;;;;;5061478;28;20193;-70
2022/09/15 10:29:11;;;;;;;4.70;1.55;;;20.60;99.90;;;;;;5057720;28;20171;-70
2022/09/15 10:31:37;;;;;;;4.95;2.20;;;20.70;99.90;;;;;;5056411;28;20211;-72
2022/09/15 10:34:32;;;;;;;5.80;3.15;;;20.80;99.90;;;;;;5073815;28;20688;-69
2022/09/15 10:37:22;;;;;;;5.53;2.55;;;20.90;99.90;;;;;;5064062;28;20245;-70
2022/09/15 10:39:53;;;;;;;6.13;2.28;;;21.10;99.90;;;;;;5079079;28;20247;-69
2022/09/15 10:42:48;;;;;;;8.63;4.47;;;21.30;99.90;;;;;;5075421;28;20210;-69
2022/09/15 10:45:35;;;;;;;6.22;1.85;;;21.30;99.90;;;;;;5076195;28;20608;-69
2022/09/15 10:48:31;;;;;;;3.88;1.73;;;21.10;99.90;;;;;;5076036;28;20222;-69
2022/09/15 10:50:59;;;;;;;4.55;1.60;;;20.90;99.90;;;;;;5056136;28;20207;-70
2022/09/15 10:53:54;;;;;;;3.90;1.27;;;20.50;99.90;;;;;;5074741;28;20201;-69
2022/09/15 10:56:28;;;;;;;5.10;2.35;;;20.00;99.90;;;;;;5047938;28;20202;-70
2022/09/15 10:59:02;;;;;;;4.00;1.95;;;19.80;99.90;;;;;;5072647;28;20174;-70
2022/09/15 11:01:28;;;;;;;10.75;6.53;;;19.60;99.90;;;;;;5077387;28;20664;-69
2022/09/15 11:04:24;;;;;;;6.53;3.50;;;19.30;99.90;;;;;;5074497;28;20217;-69
2022/09/15 11:07:05;;;;;;;5.43;2.17;;;19.20;99.90;;;;;;5051010;28;20212;-69
2022/09/15 11:09:42;;;;;;;2.25;1.50;;;19.20;99.90;;;;;;5073243;28;20209;-69
2022/09/15 11:12:34;;;;;;;3.28;1.17;;;19.40;99.90;;;;;;5055800;28;20230;-69
2022/09/15 11:15:26;;;;;;;10.52;4.75;;;19.30;99.90;;;;;;5054794;28;20215;-69
2022/09/15 11:17:52;;;;;;;7.85;4.80;;;19.40;99.90;;;;;;5051072;28;20207;-70
2022/09/15 11:20:38;;;;;;;4.05;2.15;;;19.30;99.90;;;;;;5052304;28;20255;-69
2022/09/15 11:23:03;;;;;;;5.55;1.83;;;19.30;99.90;;;;;;5058093;28;20166;-69
2022/09/15 11:25:34;;;;;;;5.80;2.20;;;19.50;99.90;;;;;;5050007;28;20195;-69
2022/09/15 11:28:18;;;;;;;6.18;2.25;;;19.70;99.90;;;;;;5059948;28;20234;-69
2022/09/15 11:30:54;;;;;;;4.90;2.47;;;19.90;99.90;;;;;;5062648;28;20285;-68
2022/09/15 11:33:28;;;;;;;8.07;2.60;;;20.10;99.90;;;;;;5075640;28;20238;-68
2022/09/15 11:35:54;;;;;;;8.02;1.60;;;20.30;99.90;;;;;;5077022;28;20726;-68
2022/09/15 11:38:41;;;;;;;7.95;2.35;;;20.40;99.90;;;;;;5058286;28;20178;-69
2022/09/15 11:41:13;;;;;;;25.13;9.43;;;20.10;99.90;;;;;;5073832;28;20217;-69
2022/09/15 11:44:05;;;;;;;14.02;8.10;;;20.00;99.90;;;;;;5060280;28;20206;-70
2022/09/15 11:46:52;;;;;;;4.47;2.03;;;19.90;99.90;;;;;;5069633;28;20222;-70
2022/09/15 11:49:28;;;;;;;4.70;1.50;;;19.70;99.90;;;;;;5079301;28;20221;-70
2022/09/15 11:52:10;;;;;;;7.95;3.33;;;19.60;99.90;;;;;;5080053;28;20202;-71
2022/09/15 11:54:47;;;;;;;6.07;2.30;;;19.40;99.90;;;;;;5056713;28;20291;-71
2022/09/15 11:57:26;;;;;;;6.05;1.50;;;19.40;99.90;;;;;;5059346;28;20260;-70
2022/09/15 12:00:11;;;;;;;4.25;1.52;;;19.30;99.90;;;;;;5075997;28;20297;-78
2022/09/15 12:03:04;;;;;;;7.63;4.10;;;19.40;99.90;;;;;;5077854;28;20244;-71
2022/09/15 12:05:36;;;;;;;5.05;1.30;;;19.60;99.90;;;;;;5078163;28;20201;-72
2022/09/15 12:08:14;;;;;;;5.47;1.65;;;19.70;99.90;;;;;;5070259;28;20647;-73
2022/09/15 12:10:43;;;;;;;4.43;1.90;;;19.60;99.90;;;;;;5078347;28;20191;-72
2022/09/15 12:13:20;;;;;;;8.27;3.67;;;19.60;99.90;;;;;;5080610;28;20210;-70
2022/09/15 12:15:47;;;;;;;3.05;1.40;;;19.30;99.90;;;;;;5079563;28;20202;-70
2022/09/15 12:18:30;;;;;;;4.30;1.67;;;19.10;99.90;;;;;;5078645;28;20217;-71
2022/09/15 12:21:14;;;;;;;6.63;3.20;;;18.80;99.90;;;;;;5077565;28;20225;-72
2022/09/15 12:23:53;;;;;;;5.97;3.08;;;18.70;99.90;;;;;;5074486;28;20248;-71
2022/09/15 12:26:22;;;;;;;7.00;2.30;;;18.70;99.90;;;;;;5076717;28;20628;-69
2022/09/15 12:28:56;;;;;;;6.53;2.70;;;18.60;99.90;;;;;;5075731;28;20171;-68
2022/09/15 12:31:22;;;;;;;9.88;4.55;;;18.80;99.90;;;;;;5074584;28;20213;-71
2022/09/15 12:33:58;;;;;;;5.63;2.28;;;18.90;99.90;;;;;;5059534;28;20207;-72
2022/09/15 12:36:46;;;;;;;8.90;4.65;;;19.10;99.90;;;;;;5079565;28;20206;-73
2022/09/15 12:39:22;;;;;;;4.30;1.52;;;19.20;99.90;;;;;;5076925;28;20266;-74
2022/09/15 12:41:50;;;;;;;5.22;1.70;;;19.40;99.90;;;;;;5069202;28;20253;-72
2022/09/15 12:44:29;;;;;;;5.53;1.60;;;19.30;99.90;;;;;;5076474;28;20171;-73
2022/09/15 12:46:57;;;;;;;4.45;1.30;;;19.30;99.90;;;;;;5082486;28;20229;-73
2022/09/15 12:49:32;;;;;;;4.70;1.80;;;19.20;99.90;;;;;;5076744;28;20199;-72
2022/09/15 12:52:01;;;;;;;3.45;1.42;;;19.10;99.90;;;;;;5059162;28;20221;-73
2022/09/15 12:54:31;;;;;;;2.63;1.40;;;19.00;99.90;;;;;;5071617;28;20199;-71
2022/09/15 12:56:56;;;;;;;1.77;0.90;;;19.10;99.90;;;;;;5061539;28;20207;-72
2022/09/15 12:59:24;;;;;;;3.65;1.02;;;19.00;99.90;;;;;;5074546;28;20569;-73
2022/09/15 13:01:51;;;;;;;3.17;1.17;;;19.00;99.90;;;;;;5080549;28;20163;-73
2022/09/15 13:04:53;;;;;;;4.75;1.20;;;19.10;99.90;;;;;;5061295;28;20564;-74
2022/09/15 13:07:18;;;;;;;3.88;1.10;;;19.30;99.90;;;;;;5042015;28;20226;-72
2022/09/15 13:10:06;;;;;;;3.40;1.10;;;19.30;99.90;;;;;;5076555;28;20750;-74
2022/09/15 13:12:38;;;;;;;4.07;1.10;;;19.30;99.90;;;;;;5075773;28;20195;-74